CheckWX is a tool to help pilots better visualize weather data.  It is not intended as a substitute for an official pre-flight weather briefing.

19:41:54 UTC

DRRN METAR
Diori Hamani International Airport
Niamey, Niger
Current

42 mins ago

DRRN 261900Z VRB03KT 6000 NSC 39/09 Q1006 TEMPO 4000 DU
Observed
May-26 @ 19:00 UTC
Wind
  • Variable at 3 KTS
Visibility
6,003 meters
Flight Rules
MVFR
Cloud Levels
  • Clear skies
Temperature
39°C / 102°F
Dewpoint
C / 48°F
Humidity
16%
Altimeter
29.7" Hg
Pressure
1005.92 hPa
Previous

2 hours ago

DRRN 261800Z 29006KT 6000 NSC 41/07 Q1005 TEMPO 4000 DU
Observed
May-26 @ 18:00 UTC
Wind
  • 290° at 6 KTS
Visibility
6,003 meters
Flight Rules
MVFR
Cloud Levels
  • Clear skies
Temperature
41°C / 106°F
Dewpoint
C / 45°F
Humidity
13%
Altimeter
29.68" Hg
Pressure
1004.92 hPa
Previous

3 hours ago

DRRN 261700Z 28006KT 8000 NSC 41/09 Q1005 NOSIG
Observed
May-26 @ 17:00 UTC
Wind
  • 280° at 6 KTS
Visibility
7,998 meters
Flight Rules
MVFR
Cloud Levels
  • Clear skies
Temperature
41°C / 106°F
Dewpoint
C / 48°F
Humidity
14%
Altimeter
29.68" Hg
Pressure
1004.92 hPa